sensor_id;sensor_type;location;lat;lon;timestamp;P1;durP1;ratioP1;P2;durP2;ratioP2
60006;SDS011;45863;50.336;3.536;2023-08-07T00:02:05;8.20;;;3.60;;
60006;SDS011;45863;50.336;3.536;2023-08-07T00:04:31;8.02;;;3.60;;
60006;SDS011;45863;50.336;3.536;2023-08-07T00:06:57;10.55;;;3.55;;
60006;SDS011;45863;50.336;3.536;2023-08-07T00:09:22;9.02;;;3.70;;
60006;SDS011;45863;50.336;3.536;2023-08-07T00:11:47;10.53;;;3.40;;
60006;SDS011;45863;50.336;3.536;2023-08-07T00:14:13;10.55;;;3.92;;
60006;SDS011;45863;50.336;3.536;2023-08-07T00:16:38;9.03;;;3.90;;
60006;SDS011;45863;50.336;3.536;2023-08-07T00:19:03;11.27;;;4.30;;
60006;SDS011;45863;50.336;3.536;2023-08-07T00:21:28;7.47;;;3.55;;
60006;SDS011;45863;50.336;3.536;2023-08-07T00:23:54;9.83;;;4.33;;
60006;SDS011;45863;50.336;3.536;2023-08-07T00:26:20;9.63;;;4.30;;
60006;SDS011;45863;50.336;3.536;2023-08-07T00:28:45;13.00;;;3.78;;
60006;SDS011;45863;50.336;3.536;2023-08-07T00:31:11;9.50;;;3.72;;
60006;SDS011;45863;50.336;3.536;2023-08-07T00:33:37;9.68;;;3.95;;
60006;SDS011;45863;50.336;3.536;2023-08-07T00:36:02;10.17;;;4.23;;
60006;SDS011;45863;50.336;3.536;2023-08-07T00:38:28;13.18;;;4.40;;
60006;SDS011;45863;50.336;3.536;2023-08-07T00:40:53;7.85;;;4.07;;
60006;SDS011;45863;50.336;3.536;2023-08-07T00:43:18;9.50;;;4.00;;
60006;SDS011;45863;50.336;3.536;2023-08-07T00:45:45;10.30;;;4.03;;
60006;SDS011;45863;50.336;3.536;2023-08-07T00:48:11;9.43;;;3.78;;
60006;SDS011;45863;50.336;3.536;2023-08-07T00:50:37;10.60;;;4.10;;
60006;SDS011;45863;50.336;3.536;2023-08-07T00:53:02;10.77;;;4.90;;
60006;SDS011;45863;50.336;3.536;2023-08-07T00:55:28;10.45;;;4.35;;
60006;SDS011;45863;50.336;3.536;2023-08-07T00:57:54;11.35;;;4.28;;
60006;SDS011;45863;50.336;3.536;2023-08-07T01:00:19;14.93;;;4.63;;
60006;SDS011;45863;50.336;3.536;2023-08-07T01:02:45;12.10;;;3.92;;
60006;SDS011;45863;50.336;3.536;2023-08-07T01:05:12;11.40;;;3.90;;
60006;SDS011;45863;50.336;3.536;2023-08-07T01:07:37;10.63;;;4.57;;
60006;SDS011;45863;50.336;3.536;2023-08-07T01:10:03;9.75;;;4.93;;
60006;SDS011;45863;50.336;3.536;2023-08-07T01:12:29;8.27;;;3.92;;
60006;SDS011;45863;50.336;3.536;2023-08-07T01:14:58;10.35;;;4.50;;
60006;SDS011;45863;50.336;3.536;2023-08-07T01:17:26;8.90;;;4.60;;
60006;SDS011;45863;50.336;3.536;2023-08-07T01:19:53;11.65;;;5.15;;
60006;SDS011;45863;50.336;3.536;2023-08-07T01:22:18;8.52;;;4.43;;
60006;SDS011;45863;50.336;3.536;2023-08-07T01:24:47;11.00;;;4.40;;
60006;SDS011;45863;50.336;3.536;2023-08-07T01:32:33;7.55;;;3.88;;
60006;SDS011;45863;50.336;3.536;2023-08-07T01:34:59;9.57;;;4.03;;
60006;SDS011;45863;50.336;3.536;2023-08-07T01:37:26;8.13;;;3.42;;
60006;SDS011;45863;50.336;3.536;2023-08-07T01:39:53;11.35;;;3.65;;
60006;SDS011;45863;50.336;3.536;2023-08-07T01:42:18;8.80;;;4.18;;
60006;SDS011;45863;50.336;3.536;2023-08-07T01:44:44;9.13;;;3.90;;
60006;SDS011;45863;50.336;3.536;2023-08-07T01:47:09;9.88;;;3.95;;
60006;SDS011;45863;50.336;3.536;2023-08-07T01:49:34;8.25;;;3.60;;
60006;SDS011;45863;50.336;3.536;2023-08-07T01:51:59;10.13;;;4.03;;
60006;SDS011;45863;50.336;3.536;2023-08-07T01:54:25;8.43;;;4.05;;
60006;SDS011;45863;50.336;3.536;2023-08-07T01:56:50;7.33;;;3.63;;
60006;SDS011;45863;50.336;3.536;2023-08-07T01:59:15;10.37;;;3.57;;
60006;SDS011;45863;50.336;3.536;2023-08-07T02:01:40;11.90;;;3.70;;
60006;SDS011;45863;50.336;3.536;2023-08-07T02:04:05;8.90;;;3.67;;
60006;SDS011;45863;50.336;3.536;2023-08-07T02:06:31;8.73;;;3.73;;
60006;SDS011;45863;50.336;3.536;2023-08-07T02:08:56;10.80;;;3.90;;
60006;SDS011;45863;50.336;3.536;2023-08-07T02:11:22;11.30;;;3.78;;
60006;SDS011;45863;50.336;3.536;2023-08-07T02:13:47;10.48;;;4.60;;
60006;SDS011;45863;50.336;3.536;2023-08-07T02:16:13;12.05;;;4.22;;
60006;SDS011;45863;50.336;3.536;2023-08-07T02:18:38;9.60;;;3.95;;
60006;SDS011;45863;50.336;3.536;2023-08-07T02:21:03;13.30;;;4.70;;
60006;SDS011;45863;50.336;3.536;2023-08-07T02:23:28;12.57;;;4.40;;
60006;SDS011;45863;50.336;3.536;2023-08-07T02:25:54;9.38;;;4.30;;
60006;SDS011;45863;50.336;3.536;2023-08-07T02:28:19;12.45;;;4.47;;
60006;SDS011;45863;50.336;3.536;2023-08-07T02:30:47;10.23;;;4.47;;
60006;SDS011;45863;50.336;3.536;2023-08-07T02:33:14;10.25;;;4.28;;
60006;SDS011;45863;50.336;3.536;2023-08-07T02:35:39;11.15;;;4.85;;
60006;SDS011;45863;50.336;3.536;2023-08-07T02:38:04;11.63;;;4.13;;
60006;SDS011;45863;50.336;3.536;2023-08-07T02:40:29;12.67;;;5.17;;
60006;SDS011;45863;50.336;3.536;2023-08-07T02:42:55;11.90;;;4.30;;
60006;SDS011;45863;50.336;3.536;2023-08-07T02:45:20;13.53;;;4.70;;
60006;SDS011;45863;50.336;3.536;2023-08-07T02:47:45;9.27;;;4.35;;
60006;SDS011;45863;50.336;3.536;2023-08-07T02:50:11;13.77;;;4.40;;
60006;SDS011;45863;50.336;3.536;2023-08-07T02:52:36;13.53;;;5.17;;
60006;SDS011;45863;50.336;3.536;2023-08-07T02:55:01;8.87;;;4.77;;
60006;SDS011;45863;50.336;3.536;2023-08-07T02:57:26;13.30;;;4.90;;
60006;SDS011;45863;50.336;3.536;2023-08-07T02:59:51;11.25;;;5.20;;
60006;SDS011;45863;50.336;3.536;2023-08-07T03:02:17;12.73;;;4.70;;
60006;SDS011;45863;50.336;3.536;2023-08-07T03:04:42;13.77;;;5.25;;
60006;SDS011;45863;50.336;3.536;2023-08-07T03:07:07;11.38;;;4.32;;
60006;SDS011;45863;50.336;3.536;2023-08-07T03:09:32;11.48;;;5.25;;
60006;SDS011;45863;50.336;3.536;2023-08-07T03:11:58;13.05;;;5.63;;
60006;SDS011;45863;50.336;3.536;2023-08-07T03:14:28;12.45;;;5.15;;
60006;SDS011;45863;50.336;3.536;2023-08-07T03:16:53;11.67;;;5.27;;
60006;SDS011;45863;50.336;3.536;2023-08-07T03:19:18;12.97;;;4.90;;
60006;SDS011;45863;50.336;3.536;2023-08-07T03:21:46;13.55;;;4.88;;
60006;SDS011;45863;50.336;3.536;2023-08-07T03:24:11;9.67;;;5.00;;
60006;SDS011;45863;50.336;3.536;2023-08-07T03:26:36;12.53;;;4.97;;
60006;SDS011;45863;50.336;3.536;2023-08-07T03:29:02;12.23;;;5.00;;
60006;SDS011;45863;50.336;3.536;2023-08-07T03:31:27;11.52;;;5.13;;
60006;SDS011;45863;50.336;3.536;2023-08-07T03:33:52;10.47;;;4.87;;
60006;SDS011;45863;50.336;3.536;2023-08-07T03:36:18;12.82;;;4.70;;
60006;SDS011;45863;50.336;3.536;2023-08-07T03:38:43;12.95;;;4.63;;
60006;SDS011;45863;50.336;3.536;2023-08-07T03:41:09;15.02;;;5.03;;
60006;SDS011;45863;50.336;3.536;2023-08-07T03:43:34;12.77;;;4.85;;
60006;SDS011;45863;50.336;3.536;2023-08-07T03:45:59;13.73;;;5.00;;
60006;SDS011;45863;50.336;3.536;2023-08-07T03:48:24;13.27;;;4.60;;
60006;SDS011;45863;50.336;3.536;2023-08-07T03:50:49;12.73;;;5.00;;
60006;SDS011;45863;50.336;3.536;2023-08-07T03:53:15;14.30;;;4.88;;
60006;SDS011;45863;50.336;3.536;2023-08-07T03:55:40;11.20;;;5.00;;
60006;SDS011;45863;50.336;3.536;2023-08-07T03:58:06;11.55;;;4.88;;
60006;SDS011;45863;50.336;3.536;2023-08-07T04:00:32;10.65;;;4.65;;
60006;SDS011;45863;50.336;3.536;2023-08-07T04:02:57;10.40;;;4.87;;
60006;SDS011;45863;50.336;3.536;2023-08-07T04:05:22;17.08;;;5.60;;
60006;SDS011;45863;50.336;3.536;2023-08-07T04:07:47;13.00;;;4.82;;
60006;SDS011;45863;50.336;3.536;2023-08-07T04:10:13;12.35;;;4.63;;
60006;SDS011;45863;50.336;3.536;2023-08-07T04:12:38;15.23;;;5.22;;
60006;SDS011;45863;50.336;3.536;2023-08-07T04:15:03;13.48;;;4.95;;
60006;SDS011;45863;50.336;3.536;2023-08-07T04:17:29;15.70;;;5.93;;
60006;SDS011;45863;50.336;3.536;2023-08-07T04:19:54;13.95;;;4.85;;
60006;SDS011;45863;50.336;3.536;2023-08-07T04:22:19;13.27;;;4.90;;
60006;SDS011;45863;50.336;3.536;2023-08-07T04:24:44;11.95;;;4.63;;
60006;SDS011;45863;50.336;3.536;2023-08-07T04:27:09;16.88;;;5.10;;
60006;SDS011;45863;50.336;3.536;2023-08-07T04:29:35;13.75;;;5.20;;
60006;SDS011;45863;50.336;3.536;2023-08-07T04:32:00;16.48;;;5.18;;
60006;SDS011;45863;50.336;3.536;2023-08-07T04:34:25;12.43;;;4.60;;
60006;SDS011;45863;50.336;3.536;2023-08-07T04:36:50;12.35;;;5.43;;
60006;SDS011;45863;50.336;3.536;2023-08-07T04:39:18;14.55;;;5.25;;
60006;SDS011;45863;50.336;3.536;2023-08-07T04:41:43;10.98;;;4.50;;
60006;SDS011;45863;50.336;3.536;2023-08-07T04:44:09;14.35;;;5.28;;
60006;SDS011;45863;50.336;3.536;2023-08-07T04:46:34;13.37;;;5.60;;
60006;SDS011;45863;50.336;3.536;2023-08-07T04:48:59;14.63;;;5.13;;
60006;SDS011;45863;50.336;3.536;2023-08-07T04:51:26;10.90;;;5.10;;
60006;SDS011;45863;50.336;3.536;2023-08-07T04:53:51;9.65;;;5.00;;
60006;SDS011;45863;50.336;3.536;2023-08-07T04:56:16;11.38;;;4.82;;
60006;SDS011;45863;50.336;3.536;2023-08-07T04:58:42;12.15;;;5.18;;
60006;SDS011;45863;50.336;3.536;2023-08-07T05:01:07;11.68;;;5.25;;
60006;SDS011;45863;50.336;3.536;2023-08-07T05:03:33;14.05;;;5.53;;
60006;SDS011;45863;50.336;3.536;2023-08-07T05:05:59;13.75;;;5.25;;
60006;SDS011;45863;50.336;3.536;2023-08-07T05:08:25;14.10;;;5.25;;
60006;SDS011;45863;50.336;3.536;2023-08-07T05:10:50;14.93;;;5.13;;
60006;SDS011;45863;50.336;3.536;2023-08-07T05:13:15;16.33;;;5.50;;
60006;SDS011;45863;50.336;3.536;2023-08-07T05:15:40;14.77;;;5.43;;
60006;SDS011;45863;50.336;3.536;2023-08-07T05:18:05;14.68;;;5.50;;
60006;SDS011;45863;50.336;3.536;2023-08-07T05:20:31;15.23;;;5.70;;
60006;SDS011;45863;50.336;3.536;2023-08-07T05:22:56;12.25;;;5.55;;
60006;SDS011;45863;50.336;3.536;2023-08-07T05:25:21;11.25;;;5.05;;
60006;SDS011;45863;50.336;3.536;2023-08-07T05:27:46;12.70;;;5.50;;
60006;SDS011;45863;50.336;3.536;2023-08-07T05:30:12;15.65;;;5.82;;
60006;SDS011;45863;50.336;3.536;2023-08-07T05:32:38;17.80;;;6.13;;
60006;SDS011;45863;50.336;3.536;2023-08-07T05:35:04;14.02;;;5.45;;
60006;SDS011;45863;50.336;3.536;2023-08-07T05:37:29;16.77;;;5.93;;
60006;SDS011;45863;50.336;3.536;2023-08-07T05:39:56;17.88;;;6.40;;
60006;SDS011;45863;50.336;3.536;2023-08-07T05:42:21;11.45;;;5.70;;
60006;SDS011;45863;50.336;3.536;2023-08-07T05:44:46;14.50;;;5.57;;
60006;SDS011;45863;50.336;3.536;2023-08-07T05:47:12;11.83;;;5.70;;
60006;SDS011;45863;50.336;3.536;2023-08-07T05:49:37;13.38;;;5.82;;
60006;SDS011;45863;50.336;3.536;2023-08-07T05:52:02;11.43;;;5.57;;
60006;SDS011;45863;50.336;3.536;2023-08-07T05:54:27;11.48;;;5.88;;
60006;SDS011;45863;50.336;3.536;2023-08-07T05:56:53;15.75;;;5.65;;
60006;SDS011;45863;50.336;3.536;2023-08-07T05:59:18;10.88;;;5.68;;
60006;SDS011;45863;50.336;3.536;2023-08-07T06:01:44;9.43;;;5.50;;
60006;SDS011;45863;50.336;3.536;2023-08-07T06:04:09;12.47;;;5.07;;
60006;SDS011;45863;50.336;3.536;2023-08-07T06:06:34;15.70;;;5.97;;
60006;SDS011;45863;50.336;3.536;2023-08-07T06:09:00;12.95;;;5.82;;
60006;SDS011;45863;50.336;3.536;2023-08-07T06:11:27;10.32;;;5.55;;
60006;SDS011;45863;50.336;3.536;2023-08-07T06:13:52;11.48;;;6.18;;
60006;SDS011;45863;50.336;3.536;2023-08-07T06:16:17;8.43;;;4.65;;
60006;SDS011;45863;50.336;3.536;2023-08-07T06:18:43;11.70;;;5.60;;
60006;SDS011;45863;50.336;3.536;2023-08-07T06:21:08;19.17;;;4.97;;
60006;SDS011;45863;50.336;3.536;2023-08-07T06:23:35;11.25;;;5.40;;
60006;SDS011;45863;50.336;3.536;2023-08-07T06:26:01;13.23;;;4.90;;
60006;SDS011;45863;50.336;3.536;2023-08-07T06:28:29;11.80;;;5.15;;
60006;SDS011;45863;50.336;3.536;2023-08-07T06:30:59;11.93;;;5.43;;
60006;SDS011;45863;50.336;3.536;2023-08-07T06:33:25;10.05;;;5.07;;
60006;SDS011;45863;50.336;3.536;2023-08-07T06:35:51;11.83;;;5.13;;
60006;SDS011;45863;50.336;3.536;2023-08-07T06:38:17;8.35;;;4.90;;
60006;SDS011;45863;50.336;3.536;2023-08-07T06:40:42;9.60;;;4.70;;
60006;SDS011;45863;50.336;3.536;2023-08-07T06:43:07;8.77;;;4.50;;
60006;SDS011;45863;50.336;3.536;2023-08-07T06:45:32;10.03;;;4.10;;
60006;SDS011;45863;50.336;3.536;2023-08-07T06:47:57;9.03;;;4.10;;
60006;SDS011;45863;50.336;3.536;2023-08-07T06:50:23;9.88;;;4.28;;
60006;SDS011;45863;50.336;3.536;2023-08-07T06:52:49;10.88;;;5.13;;
60006;SDS011;45863;50.336;3.536;2023-08-07T06:55:14;10.55;;;4.85;;
60006;SDS011;45863;50.336;3.536;2023-08-07T06:57:39;8.60;;;4.57;;
60006;SDS011;45863;50.336;3.536;2023-08-07T07:00:05;8.68;;;4.40;;
60006;SDS011;45863;50.336;3.536;2023-08-07T07:02:30;9.02;;;4.22;;
60006;SDS011;45863;50.336;3.536;2023-08-07T07:04:55;10.10;;;4.57;;
60006;SDS011;45863;50.336;3.536;2023-08-07T07:07:20;7.67;;;4.07;;
60006;SDS011;45863;50.336;3.536;2023-08-07T07:09:46;9.23;;;4.30;;
60006;SDS011;45863;50.336;3.536;2023-08-07T07:12:11;14.00;;;5.50;;
60006;SDS011;45863;50.336;3.536;2023-08-07T07:14:36;8.23;;;4.10;;
60006;SDS011;45863;50.336;3.536;2023-08-07T07:17:01;13.48;;;4.45;;
60006;SDS011;45863;50.336;3.536;2023-08-07T07:19:27;9.45;;;4.03;;
60006;SDS011;45863;50.336;3.536;2023-08-07T07:21:52;8.93;;;4.07;;
60006;SDS011;45863;50.336;3.536;2023-08-07T07:24:18;8.43;;;3.67;;
60006;SDS011;45863;50.336;3.536;2023-08-07T07:26:43;7.88;;;4.60;;
60006;SDS011;45863;50.336;3.536;2023-08-07T07:29:08;11.33;;;4.33;;
60006;SDS011;45863;50.336;3.536;2023-08-07T07:31:34;8.18;;;4.28;;
60006;SDS011;45863;50.336;3.536;2023-08-07T07:33:59;8.55;;;4.30;;
60006;SDS011;45863;50.336;3.536;2023-08-07T07:36:24;11.38;;;4.68;;
60006;SDS011;45863;50.336;3.536;2023-08-07T07:38:50;8.48;;;4.57;;
60006;SDS011;45863;50.336;3.536;2023-08-07T07:41:15;10.45;;;4.57;;
60006;SDS011;45863;50.336;3.536;2023-08-07T07:43:40;5.88;;;3.80;;
60006;SDS011;45863;50.336;3.536;2023-08-07T07:46:06;12.00;;;4.53;;
60006;SDS011;45863;50.336;3.536;2023-08-07T07:48:31;10.20;;;3.85;;
60006;SDS011;45863;50.336;3.536;2023-08-07T07:51:03;7.88;;;3.95;;
60006;SDS011;45863;50.336;3.536;2023-08-07T07:53:28;10.65;;;3.95;;
60006;SDS011;45863;50.336;3.536;2023-08-07T07:55:54;11.00;;;3.35;;
60006;SDS011;45863;50.336;3.536;2023-08-07T07:58:19;7.63;;;3.67;;
60006;SDS011;45863;50.336;3.536;2023-08-07T08:00:45;9.15;;;3.65;;
60006;SDS011;45863;50.336;3.536;2023-08-07T08:03:10;6.77;;;3.20;;
60006;SDS011;45863;50.336;3.536;2023-08-07T08:05:36;7.82;;;2.85;;
60006;SDS011;45863;50.336;3.536;2023-08-07T08:08:02;7.47;;;3.03;;
60006;SDS011;45863;50.336;3.536;2023-08-07T08:10:28;8.02;;;2.85;;
60006;SDS011;45863;50.336;3.536;2023-08-07T08:12:56;11.40;;;3.07;;
60006;SDS011;45863;50.336;3.536;2023-08-07T08:15:21;6.15;;;2.40;;
60006;SDS011;45863;50.336;3.536;2023-08-07T08:17:47;6.15;;;2.70;;
60006;SDS011;45863;50.336;3.536;2023-08-07T08:20:12;7.72;;;2.33;;
60006;SDS011;45863;50.336;3.536;2023-08-07T08:22:43;8.57;;;2.70;;
60006;SDS011;45863;50.336;3.536;2023-08-07T08:25:08;6.53;;;2.65;;
60006;SDS011;45863;50.336;3.536;2023-08-07T08:27:34;7.35;;;2.25;;
60006;SDS011;45863;50.336;3.536;2023-08-07T08:29:59;5.22;;;2.15;;
60006;SDS011;45863;50.336;3.536;2023-08-07T08:32:25;5.25;;;2.45;;
60006;SDS011;45863;50.336;3.536;2023-08-07T08:34:50;7.37;;;2.73;;
60006;SDS011;45863;50.336;3.536;2023-08-07T08:37:15;7.05;;;2.30;;
60006;SDS011;45863;50.336;3.536;2023-08-07T08:39:40;7.22;;;2.60;;
60006;SDS011;45863;50.336;3.536;2023-08-07T08:42:06;7.27;;;3.10;;
60006;SDS011;45863;50.336;3.536;2023-08-07T08:44:31;10.65;;;2.58;;
60006;SDS011;45863;50.336;3.536;2023-08-07T08:46:58;11.38;;;2.90;;
60006;SDS011;45863;50.336;3.536;2023-08-07T08:49:28;8.38;;;2.60;;
60006;SDS011;45863;50.336;3.536;2023-08-07T08:54:20;4.88;;;2.67;;
60006;SDS011;45863;50.336;3.536;2023-08-07T08:56:45;7.07;;;2.97;;
60006;SDS011;45863;50.336;3.536;2023-08-07T08:59:11;5.70;;;2.75;;
60006;SDS011;45863;50.336;3.536;2023-08-07T09:01:36;5.15;;;2.70;;
60006;SDS011;45863;50.336;3.536;2023-08-07T09:04:02;4.63;;;2.20;;
60006;SDS011;45863;50.336;3.536;2023-08-07T09:06:29;5.68;;;2.45;;
60006;SDS011;45863;50.336;3.536;2023-08-07T09:08:56;5.38;;;2.58;;
60006;SDS011;45863;50.336;3.536;2023-08-07T09:11:22;5.13;;;2.30;;
60006;SDS011;45863;50.336;3.536;2023-08-07T09:13:48;5.15;;;2.70;;
60006;SDS011;45863;50.336;3.536;2023-08-07T09:16:14;5.18;;;2.58;;
60006;SDS011;45863;50.336;3.536;2023-08-07T09:18:39;4.68;;;1.50;;
60006;SDS011;45863;50.336;3.536;2023-08-07T09:21:05;4.70;;;2.30;;
60006;SDS011;45863;50.336;3.536;2023-08-07T09:23:30;5.88;;;2.50;;
60006;SDS011;45863;50.336;3.536;2023-08-07T09:25:59;5.75;;;2.70;;
60006;SDS011;45863;50.336;3.536;2023-08-07T09:28:24;5.65;;;2.72;;
60006;SDS011;45863;50.336;3.536;2023-08-07T09:30:51;5.50;;;2.30;;
60006;SDS011;45863;50.336;3.536;2023-08-07T09:33:19;4.85;;;2.10;;
60006;SDS011;45863;50.336;3.536;2023-08-07T09:35:49;3.90;;;1.55;;
60006;SDS011;45863;50.336;3.536;2023-08-07T09:38:14;7.23;;;2.57;;
60006;SDS011;45863;50.336;3.536;2023-08-07T09:40:39;4.13;;;2.47;;
60006;SDS011;45863;50.336;3.536;2023-08-07T09:43:07;5.95;;;2.38;;
60006;SDS011;45863;50.336;3.536;2023-08-07T09:45:32;5.55;;;1.90;;
60006;SDS011;45863;50.336;3.536;2023-08-07T09:48:03;4.22;;;2.28;;
60006;SDS011;45863;50.336;3.536;2023-08-07T09:50:28;4.03;;;2.05;;
60006;SDS011;45863;50.336;3.536;2023-08-07T09:52:54;4.70;;;2.00;;
60006;SDS011;45863;50.336;3.536;2023-08-07T09:55:28;5.30;;;2.55;;
60006;SDS011;45863;50.336;3.536;2023-08-07T09:57:54;5.77;;;2.80;;
60006;SDS011;45863;50.336;3.536;2023-08-07T10:00:20;3.88;;;2.47;;
60006;SDS011;45863;50.336;3.536;2023-08-07T10:02:46;3.92;;;1.83;;
60006;SDS011;45863;50.336;3.536;2023-08-07T10:05:12;4.38;;;2.35;;
60006;SDS011;45863;50.336;3.536;2023-08-07T10:07:38;4.20;;;1.92;;
60006;SDS011;45863;50.336;3.536;2023-08-07T10:10:03;5.55;;;2.33;;
60006;SDS011;45863;50.336;3.536;2023-08-07T10:12:29;4.75;;;1.83;;
60006;SDS011;45863;50.336;3.536;2023-08-07T10:14:54;4.57;;;2.30;;
60006;SDS011;45863;50.336;3.536;2023-08-07T10:17:23;4.57;;;2.38;;
60006;SDS011;45863;50.336;3.536;2023-08-07T10:19:48;4.40;;;2.40;;
60006;SDS011;45863;50.336;3.536;2023-08-07T10:22:15;4.40;;;2.30;;
60006;SDS011;45863;50.336;3.536;2023-08-07T10:24:40;4.65;;;1.50;;
60006;SDS011;45863;50.336;3.536;2023-08-07T10:27:07;3.45;;;2.13;;
60006;SDS011;45863;50.336;3.536;2023-08-07T10:29:33;5.22;;;1.77;;
60006;SDS011;45863;50.336;3.536;2023-08-07T10:31:59;4.93;;;1.77;;
60006;SDS011;45863;50.336;3.536;2023-08-07T10:34:28;4.70;;;2.38;;
60006;SDS011;45863;50.336;3.536;2023-08-07T10:36:53;4.05;;;2.50;;
60006;SDS011;45863;50.336;3.536;2023-08-07T10:39:18;4.65;;;2.05;;
60006;SDS011;45863;50.336;3.536;2023-08-07T10:41:47;4.03;;;2.20;;
60006;SDS011;45863;50.336;3.536;2023-08-07T10:44:19;4.55;;;2.55;;
60006;SDS011;45863;50.336;3.536;2023-08-07T10:46:52;5.10;;;2.28;;
60006;SDS011;45863;50.336;3.536;2023-08-07T10:49:31;4.03;;;2.08;;
60006;SDS011;45863;50.336;3.536;2023-08-07T10:52:08;4.78;;;1.77;;
60006;SDS011;45863;50.336;3.536;2023-08-07T10:54:54;3.70;;;1.90;;
60006;SDS011;45863;50.336;3.536;2023-08-07T10:57:19;4.32;;;1.80;;
60006;SDS011;45863;50.336;3.536;2023-08-07T11:02:25;5.25;;;2.58;;
60006;SDS011;45863;50.336;3.536;2023-08-07T11:04:51;3.80;;;2.10;;
60006;SDS011;45863;50.336;3.536;2023-08-07T11:07:23;3.90;;;2.00;;
60006;SDS011;45863;50.336;3.536;2023-08-07T11:09:48;3.22;;;1.60;;
60006;SDS011;45863;50.336;3.536;2023-08-07T11:12:13;3.40;;;1.50;;
60006;SDS011;45863;50.336;3.536;2023-08-07T11:14:38;4.33;;;1.70;;
60006;SDS011;45863;50.336;3.536;2023-08-07T11:17:06;4.10;;;1.70;;
60006;SDS011;45863;50.336;3.536;2023-08-07T11:19:31;6.00;;;2.40;;
60006;SDS011;45863;50.336;3.536;2023-08-07T11:21:57;4.10;;;2.50;;
60006;SDS011;45863;50.336;3.536;2023-08-07T11:24:22;3.67;;;1.65;;
60006;SDS011;45863;50.336;3.536;2023-08-07T11:26:47;4.27;;;2.40;;
60006;SDS011;45863;50.336;3.536;2023-08-07T11:29:16;4.87;;;2.40;;
60006;SDS011;45863;50.336;3.536;2023-08-07T11:31:41;6.53;;;2.42;;
60006;SDS011;45863;50.336;3.536;2023-08-07T11:34:07;4.67;;;2.27;;
60006;SDS011;45863;50.336;3.536;2023-08-07T11:36:32;7.50;;;2.80;;
60006;SDS011;45863;50.336;3.536;2023-08-07T11:39:04;4.38;;;2.08;;
60006;SDS011;45863;50.336;3.536;2023-08-07T11:41:31;3.35;;;1.52;;
60006;SDS011;45863;50.336;3.536;2023-08-07T11:43:56;4.57;;;1.92;;
60006;SDS011;45863;50.336;3.536;2023-08-07T11:46:21;4.07;;;1.70;;
60006;SDS011;45863;50.336;3.536;2023-08-07T11:48:47;4.63;;;1.97;;
60006;SDS011;45863;50.336;3.536;2023-08-07T11:51:12;5.50;;;1.70;;
60006;SDS011;45863;50.336;3.536;2023-08-07T11:53:38;6.85;;;2.08;;
60006;SDS011;45863;50.336;3.536;2023-08-07T11:56:06;5.47;;;2.03;;
60006;SDS011;45863;50.336;3.536;2023-08-07T11:58:39;4.88;;;1.80;;
60006;SDS011;45863;50.336;3.536;2023-08-07T12:01:05;6.57;;;2.78;;
60006;SDS011;45863;50.336;3.536;2023-08-07T12:03:31;4.40;;;2.03;;
60006;SDS011;45863;50.336;3.536;2023-08-07T12:05:58;4.47;;;2.08;;
60006;SDS011;45863;50.336;3.536;2023-08-07T12:08:24;4.95;;;2.80;;
60006;SDS011;45863;50.336;3.536;2023-08-07T12:10:55;4.88;;;2.08;;
60006;SDS011;45863;50.336;3.536;2023-08-07T12:13:23;6.95;;;1.60;;
60006;SDS011;45863;50.336;3.536;2023-08-07T12:15:56;3.35;;;1.20;;
60006;SDS011;45863;50.336;3.536;2023-08-07T12:18:22;4.97;;;2.13;;
60006;SDS011;45863;50.336;3.536;2023-08-07T12:20:48;3.00;;;1.20;;
60006;SDS011;45863;50.336;3.536;2023-08-07T12:23:14;4.43;;;1.90;;
60006;SDS011;45863;50.336;3.536;2023-08-07T12:25:41;4.93;;;2.13;;
60006;SDS011;45863;50.336;3.536;2023-08-07T12:28:06;4.70;;;1.67;;
60006;SDS011;45863;50.336;3.536;2023-08-07T12:30:33;3.83;;;1.38;;
60006;SDS011;45863;50.336;3.536;2023-08-07T12:32:59;2.85;;;1.30;;
60006;SDS011;45863;50.336;3.536;2023-08-07T12:35:24;6.13;;;1.50;;
60006;SDS011;45863;50.336;3.536;2023-08-07T12:37:49;5.43;;;1.80;;
60006;SDS011;45863;50.336;3.536;2023-08-07T12:40:14;5.33;;;1.30;;
60006;SDS011;45863;50.336;3.536;2023-08-07T12:42:44;5.05;;;1.45;;
60006;SDS011;45863;50.336;3.536;2023-08-07T12:45:09;4.50;;;1.73;;
60006;SDS011;45863;50.336;3.536;2023-08-07T12:47:35;6.45;;;2.08;;
60006;SDS011;45863;50.336;3.536;2023-08-07T12:50:00;4.37;;;1.50;;
60006;SDS011;45863;50.336;3.536;2023-08-07T12:52:25;5.07;;;1.55;;
60006;SDS011;45863;50.336;3.536;2023-08-07T12:54:50;4.40;;;1.70;;
60006;SDS011;45863;50.336;3.536;2023-08-07T12:57:16;4.03;;;1.37;;
60006;SDS011;45863;50.336;3.536;2023-08-07T12:59:41;3.63;;;1.70;;
60006;SDS011;45863;50.336;3.536;2023-08-07T13:02:06;3.77;;;1.60;;
60006;SDS011;45863;50.336;3.536;2023-08-07T13:04:31;6.47;;;1.77;;
60006;SDS011;45863;50.336;3.536;2023-08-07T13:06:58;9.60;;;3.15;;
60006;SDS011;45863;50.336;3.536;2023-08-07T13:09:24;5.23;;;1.80;;
60006;SDS011;45863;50.336;3.536;2023-08-07T13:11:49;3.17;;;1.75;;
60006;SDS011;45863;50.336;3.536;2023-08-07T13:14:14;4.63;;;1.23;;
60006;SDS011;45863;50.336;3.536;2023-08-07T13:16:40;3.50;;;1.20;;
60006;SDS011;45863;50.336;3.536;2023-08-07T13:19:05;2.93;;;1.30;;
60006;SDS011;45863;50.336;3.536;2023-08-07T13:21:30;4.80;;;1.70;;
60006;SDS011;45863;50.336;3.536;2023-08-07T13:23:55;4.28;;;1.88;;
60006;SDS011;45863;50.336;3.536;2023-08-07T13:26:21;3.45;;;1.40;;
60006;SDS011;45863;50.336;3.536;2023-08-07T13:28:46;6.88;;;1.50;;
60006;SDS011;45863;50.336;3.536;2023-08-07T13:31:11;3.07;;;1.23;;
60006;SDS011;45863;50.336;3.536;2023-08-07T13:33:37;3.33;;;1.27;;
60006;SDS011;45863;50.336;3.536;2023-08-07T13:36:02;4.45;;;1.42;;
60006;SDS011;45863;50.336;3.536;2023-08-07T13:38:27;3.42;;;1.13;;
60006;SDS011;45863;50.336;3.536;2023-08-07T13:40:52;8.73;;;2.00;;
60006;SDS011;45863;50.336;3.536;2023-08-07T13:43:18;3.05;;;1.17;;
60006;SDS011;45863;50.336;3.536;2023-08-07T13:45:43;4.70;;;1.40;;
60006;SDS011;45863;50.336;3.536;2023-08-07T13:48:08;3.63;;;1.27;;
60006;SDS011;45863;50.336;3.536;2023-08-07T13:50:34;4.18;;;1.42;;
60006;SDS011;45863;50.336;3.536;2023-08-07T13:53:00;2.60;;;1.25;;
60006;SDS011;45863;50.336;3.536;2023-08-07T13:55:25;5.10;;;1.70;;
60006;SDS011;45863;50.336;3.536;2023-08-07T13:57:50;3.17;;;1.20;;
60006;SDS011;45863;50.336;3.536;2023-08-07T14:00:16;3.87;;;1.43;;
60006;SDS011;45863;50.336;3.536;2023-08-07T14:02:41;3.15;;;1.13;;
60006;SDS011;45863;50.336;3.536;2023-08-07T14:05:06;3.27;;;1.40;;
60006;SDS011;45863;50.336;3.536;2023-08-07T14:07:31;5.57;;;1.77;;
60006;SDS011;45863;50.336;3.536;2023-08-07T14:09:56;3.53;;;1.13;;
60006;SDS011;45863;50.336;3.536;2023-08-07T14:12:22;3.40;;;1.20;;
60006;SDS011;45863;50.336;3.536;2023-08-07T14:14:47;3.30;;;1.40;;
60006;SDS011;45863;50.336;3.536;2023-08-07T14:17:12;2.67;;;1.13;;
60006;SDS011;45863;50.336;3.536;2023-08-07T14:19:37;3.03;;;1.20;;
60006;SDS011;45863;50.336;3.536;2023-08-07T14:22:03;3.67;;;1.45;;
60006;SDS011;45863;50.336;3.536;2023-08-07T14:24:28;3.63;;;1.40;;
60006;SDS011;45863;50.336;3.536;2023-08-07T14:26:53;3.10;;;1.45;;
60006;SDS011;45863;50.336;3.536;2023-08-07T14:29:19;4.45;;;1.75;;
60006;SDS011;45863;50.336;3.536;2023-08-07T14:31:44;4.63;;;1.52;;
60006;SDS011;45863;50.336;3.536;2023-08-07T14:34:10;3.57;;;1.23;;
60006;SDS011;45863;50.336;3.536;2023-08-07T14:36:35;5.35;;;1.73;;
60006;SDS011;45863;50.336;3.536;2023-08-07T14:39:01;3.38;;;1.60;;
60006;SDS011;45863;50.336;3.536;2023-08-07T14:41:27;4.93;;;1.60;;
60006;SDS011;45863;50.336;3.536;2023-08-07T14:43:52;3.17;;;1.30;;
60006;SDS011;45863;50.336;3.536;2023-08-07T14:46:17;3.90;;;1.40;;